createdAt,value
2023-03-23T00:03:19.828Z,23.87
2023-03-23T00:04:19.885Z,23.84
2023-03-23T00:05:19.961Z,23.84
2023-03-23T00:06:20.022Z,23.85
2023-03-23T00:07:20.034Z,23.87
2023-03-23T00:08:20.071Z,23.88
2023-03-23T00:09:20.142Z,23.90
2023-03-23T00:10:20.167Z,23.92
2023-03-23T00:11:20.230Z,23.93
2023-03-23T00:12:20.266Z,23.96
2023-03-23T00:13:21.258Z,23.96
2023-03-23T00:21:20.195Z,23.83
2023-03-23T00:23:20.153Z,23.83
2023-03-23T00:27:20.320Z,23.84
2023-03-23T00:28:20.317Z,23.84
2023-03-23T00:29:20.396Z,23.84
2023-03-23T00:30:20.429Z,23.82
2023-03-23T00:31:20.483Z,23.82
2023-03-23T00:32:20.552Z,23.81
2023-03-23T00:33:20.586Z,23.79
2023-03-23T00:34:20.655Z,23.78
2023-03-23T00:35:20.704Z,23.77
2023-03-23T00:36:20.729Z,23.75
2023-03-23T00:37:20.803Z,23.75
2023-03-23T00:38:20.878Z,23.74
2023-03-23T00:39:20.922Z,23.76
2023-03-23T00:40:20.952Z,23.77
2023-03-23T00:41:21.016Z,23.78
2023-03-23T00:42:21.065Z,23.80
2023-03-23T00:43:21.136Z,23.82
2023-03-23T00:44:22.756Z,23.83
2023-03-23T00:45:21.220Z,23.85
2023-03-23T00:46:21.281Z,23.86
2023-03-23T00:47:21.303Z,23.88
2023-03-23T00:48:21.400Z,23.89
2023-03-23T00:49:21.407Z,23.90
2023-03-23T00:50:29.426Z,23.92
2023-03-23T00:51:22.437Z,23.92
2023-03-23T01:00:21.367Z,23.97
2023-03-23T01:04:21.369Z,23.97
2023-03-23T01:11:21.593Z,23.99
2023-03-23T01:13:21.571Z,23.99
2023-03-23T01:14:21.622Z,23.99
2023-03-23T01:15:21.676Z,23.99
2023-03-23T01:16:21.710Z,24.00
2023-03-23T01:17:21.743Z,24.00
2023-03-23T01:18:21.769Z,24.00
2023-03-23T01:19:22.790Z,24.00
2023-03-23T01:22:21.749Z,24.01
2023-03-23T01:30:21.705Z,24.00
2023-03-23T01:33:21.764Z,24.00
2023-03-23T01:43:22.045Z,23.95
2023-03-23T01:44:22.126Z,23.94
2023-03-23T01:45:22.119Z,23.93
2023-03-23T01:46:22.203Z,23.92
2023-03-23T01:47:22.202Z,23.91
2023-03-23T01:48:22.260Z,23.90
2023-03-23T01:49:22.323Z,23.90
2023-03-23T01:50:22.353Z,23.91
2023-03-23T01:51:26.228Z,23.91
2023-03-23T01:52:23.426Z,23.88
2023-03-23T01:54:22.368Z,23.83
2023-03-23T01:55:22.395Z,23.80
2023-03-23T01:59:22.337Z,23.68
2023-03-23T02:07:22.646Z,23.67
2023-03-23T02:08:22.746Z,23.69
2023-03-23T02:09:22.827Z,23.72
2023-03-23T02:12:22.776Z,23.76
2023-03-23T02:13:22.756Z,23.78
2023-03-23T02:19:22.719Z,23.82
2023-03-23T02:36:22.602Z,23.82
2023-03-23T02:40:22.586Z,23.78
2023-03-23T02:47:22.560Z,23.76
2023-03-23T02:52:22.501Z,23.81
2023-03-23T02:59:22.667Z,23.85
2023-03-23T03:00:22.671Z,23.85
2023-03-23T03:01:22.731Z,23.86
2023-03-23T03:02:22.808Z,23.86
2023-03-23T03:03:22.831Z,23.86
2023-03-23T03:04:22.874Z,23.87
2023-03-23T03:05:22.920Z,23.87
2023-03-23T03:06:22.957Z,23.87
2023-03-23T03:07:23.008Z,23.87
2023-03-23T03:08:23.041Z,23.87
2023-03-23T03:09:23.092Z,23.87
2023-03-23T03:10:23.129Z,23.87
2023-03-23T03:11:23.182Z,23.87
2023-03-23T03:12:23.235Z,23.88
2023-03-23T03:13:23.286Z,23.88
2023-03-23T03:14:23.345Z,23.87
2023-03-23T03:15:23.356Z,23.86
2023-03-23T03:16:23.389Z,23.87
2023-03-23T03:17:23.461Z,23.85
2023-03-23T03:18:23.532Z,23.85
2023-03-23T03:19:23.565Z,23.84
2023-03-23T03:20:23.604Z,23.84
2023-03-23T03:21:23.656Z,23.83
2023-03-23T03:22:23.723Z,23.83
2023-03-23T03:23:23.762Z,23.83
2023-03-23T03:24:23.816Z,23.84
2023-03-23T03:25:23.846Z,23.84
2023-03-23T03:26:23.904Z,23.85
2023-03-23T03:27:23.952Z,23.85
2023-03-23T03:28:23.992Z,23.85
2023-03-23T03:29:24.075Z,23.86
2023-03-23T03:30:24.104Z,23.86
2023-03-23T03:31:24.193Z,23.86
2023-03-23T03:32:24.240Z,23.86
2023-03-23T03:33:24.269Z,23.87
2023-03-23T03:34:24.366Z,23.86
2023-03-23T03:35:24.399Z,23.87
2023-03-23T03:36:24.411Z,23.87
2023-03-23T03:37:24.464Z,23.87
2023-03-23T03:38:24.548Z,23.87
2023-03-23T03:39:24.568Z,23.88
2023-03-23T03:40:24.613Z,23.88
2023-03-23T03:41:24.646Z,23.87
2023-03-23T03:42:24.707Z,23.88
2023-03-23T03:43:24.752Z,23.88
2023-03-23T03:44:24.797Z,23.88
2023-03-23T03:45:24.865Z,23.88
2023-03-23T03:46:24.908Z,23.87
2023-03-23T03:47:24.958Z,23.87
2023-03-23T03:48:24.995Z,23.87
2023-03-23T03:49:25.080Z,23.87
2023-03-23T03:51:27.079Z,23.87
2023-03-23T03:52:25.216Z,23.87
2023-03-23T03:53:28.873Z,23.88
2023-03-23T03:54:25.272Z,23.88
2023-03-23T03:55:25.261Z,23.88
2023-03-23T04:02:25.164Z,23.91
2023-03-23T04:03:25.158Z,23.92
2023-03-23T04:05:25.213Z,23.93
2023-03-23T04:11:32.742Z,23.98
2023-03-23T04:12:26.104Z,23.99
2023-03-23T04:14:25.112Z,24.01
2023-03-23T04:19:25.063Z,24.09
2023-03-23T04:20:32.281Z,24.11
2023-03-23T04:21:26.071Z,24.12
2023-03-23T04:22:25.044Z,24.14
2023-03-23T04:23:25.042Z,24.14
2023-03-23T04:24:56.340Z,24.14
2023-03-23T04:25:26.044Z,24.14
2023-03-23T04:28:25.029Z,24.10
2023-03-23T04:29:25.025Z,24.06
2023-03-23T04:34:24.995Z,24.04
2023-03-23T04:35:25.002Z,24.06
2023-03-23T04:36:24.985Z,24.07
2023-03-23T04:37:25.947Z,24.10
2023-03-23T04:41:24.931Z,24.15
2023-03-23T04:45:24.926Z,24.17
2023-03-23T04:51:24.890Z,24.20
2023-03-23T04:57:24.834Z,24.15
2023-03-23T04:58:24.840Z,24.13
2023-03-23T04:59:24.905Z,24.13
2023-03-23T05:00:24.904Z,24.13
2023-03-23T05:01:24.940Z,24.13
2023-03-23T05:02:24.969Z,24.13
2023-03-23T05:06:24.951Z,24.15
2023-03-23T05:10:24.933Z,24.17
2023-03-23T05:13:24.903Z,24.19
2023-03-23T05:14:24.909Z,24.21
2023-03-23T05:21:24.859Z,24.20
2023-03-23T05:25:24.852Z,24.14
2023-03-23T05:27:24.787Z,24.12
2023-03-23T05:28:24.836Z,24.13
2023-03-23T05:31:24.762Z,24.11
2023-03-23T05:32:24.794Z,24.11
2023-03-23T05:33:24.786Z,24.09
2023-03-23T05:34:24.755Z,24.08
2023-03-23T05:35:24.783Z,24.09
2023-03-23T05:41:24.729Z,24.04
2023-03-23T05:48:24.921Z,24.10
2023-03-23T05:49:24.946Z,24.09
2023-03-23T05:50:25.000Z,24.08
2023-03-23T05:51:24.999Z,24.08
2023-03-23T05:52:25.054Z,24.08
2023-03-23T05:53:25.106Z,24.09
2023-03-23T05:54:25.130Z,24.09
2023-03-23T05:55:25.122Z,24.09
2023-03-23T05:56:25.209Z,24.08
2023-03-23T05:57:25.169Z,24.07
2023-03-23T05:58:27.183Z,24.05
2023-03-23T05:59:25.195Z,24.02
2023-03-23T06:03:25.155Z,23.92
2023-03-23T06:04:25.166Z,23.91
2023-03-23T06:06:25.147Z,23.95
2023-03-23T06:07:25.146Z,23.97
2023-03-23T06:08:25.122Z,23.98
2023-03-23T06:09:25.145Z,23.97
2023-03-23T06:10:25.104Z,23.99
2023-03-23T06:11:25.086Z,23.99
2023-03-23T06:12:25.126Z,24.00
2023-03-23T06:13:25.105Z,24.01
2023-03-23T06:17:25.098Z,23.97
2023-03-23T06:19:25.032Z,23.98
2023-03-23T06:20:25.120Z,23.99
2023-03-23T06:22:25.047Z,24.03
2023-03-23T06:29:25.144Z,24.10
2023-03-23T06:30:25.673Z,24.11
2023-03-23T06:31:25.171Z,24.12
2023-03-23T06:32:25.231Z,24.12
2023-03-23T06:34:25.248Z,24.16
2023-03-23T06:35:25.659Z,24.18
2023-03-23T06:41:25.428Z,24.17
2023-03-23T06:42:25.457Z,24.19
2023-03-23T06:43:25.463Z,24.20
2023-03-23T06:44:25.503Z,24.22
2023-03-23T06:50:25.470Z,24.42
2023-03-23T06:51:25.464Z,24.44
2023-03-23T06:52:25.472Z,24.47
2023-03-23T06:56:25.424Z,24.53
2023-03-23T06:57:25.593Z,24.52
2023-03-23T06:58:25.420Z,24.53
2023-03-23T06:59:25.441Z,24.54
2023-03-23T07:02:25.416Z,24.60
2023-03-23T07:03:25.429Z,24.63
2023-03-23T07:04:25.426Z,24.66
2023-03-23T07:05:25.709Z,24.69
2023-03-23T07:08:25.391Z,24.79
2023-03-23T07:09:37.689Z,24.80
2023-03-23T07:10:26.742Z,24.82
2023-03-23T07:11:25.357Z,24.84
2023-03-23T07:15:25.333Z,24.94
2023-03-23T07:18:25.309Z,24.98
2023-03-23T07:19:25.315Z,25.01
2023-03-23T07:20:25.706Z,25.01
2023-03-23T07:23:25.447Z,25.06
2023-03-23T07:24:25.498Z,25.02
2023-03-23T07:25:25.722Z,25.01
2023-03-23T07:26:25.619Z,24.99
2023-03-23T07:27:25.677Z,24.98
2023-03-23T07:28:25.756Z,24.97
2023-03-23T07:29:25.805Z,24.96
2023-03-23T07:30:25.924Z,24.96
2023-03-23T07:42:25.810Z,24.80
2023-03-23T07:43:25.753Z,24.81
2023-03-23T07:44:25.798Z,24.82
2023-03-23T07:47:25.729Z,24.91
2023-03-23T07:48:26.721Z,24.93
2023-03-23T07:49:25.733Z,24.94
2023-03-23T07:52:25.666Z,24.84
2023-03-23T07:53:25.704Z,24.81
2023-03-23T07:56:25.752Z,24.74
2023-03-23T07:58:25.708Z,24.74
2023-03-23T07:59:25.650Z,24.75
2023-03-23T08:03:25.620Z,24.74
2023-03-23T08:06:25.599Z,24.72
2023-03-23T08:07:25.602Z,24.72
2023-03-23T08:08:25.608Z,24.72
2023-03-23T08:09:25.664Z,24.73
2023-03-23T08:10:25.651Z,24.74
2023-03-23T08:11:25.678Z,24.74
2023-03-23T08:12:25.742Z,24.76
2023-03-23T08:13:25.801Z,24.76
2023-03-23T08:18:25.978Z,24.79
2023-03-23T08:19:25.993Z,24.81
2023-03-23T08:20:26.088Z,24.81
2023-03-23T08:21:26.151Z,24.80
2023-03-23T08:22:26.217Z,24.80
2023-03-23T08:23:26.268Z,24.81
2023-03-23T08:24:26.316Z,24.80
2023-03-23T08:25:26.357Z,24.79
2023-03-23T08:26:26.390Z,24.77
2023-03-23T08:27:26.414Z,24.76
2023-03-23T08:28:26.441Z,24.76
2023-03-23T08:29:26.455Z,24.76
2023-03-23T08:30:26.486Z,24.76
2023-03-23T08:31:26.689Z,24.74
2023-03-23T08:33:26.599Z,24.74
2023-03-23T08:37:26.620Z,24.91
2023-03-23T08:38:26.682Z,24.96
2023-03-23T08:39:26.753Z,25.00
2023-03-23T08:40:26.782Z,25.03
2023-03-23T08:41:26.873Z,25.05
2023-03-23T08:42:26.955Z,25.06
2023-03-23T08:43:27.082Z,25.07
2023-03-23T08:44:27.054Z,25.11
2023-03-23T08:45:27.105Z,25.13
2023-03-23T08:46:27.183Z,25.16
2023-03-23T08:47:27.270Z,25.16
2023-03-23T08:48:28.303Z,25.17
2023-03-23T08:49:28.254Z,25.17
2023-03-23T08:50:27.281Z,25.01
2023-03-23T08:51:27.747Z,24.84
2023-03-23T08:56:27.250Z,24.29
2023-03-23T08:59:27.237Z,23.87
2023-03-23T09:00:33.299Z,23.87
2023-03-23T09:01:28.245Z,23.87
2023-03-23T09:02:27.168Z,23.88
2023-03-23T09:03:27.210Z,23.90
2023-03-23T09:04:27.160Z,23.92
2023-03-23T09:05:27.169Z,23.92
2023-03-23T09:06:28.518Z,23.90
2023-03-23T09:07:27.183Z,23.89
2023-03-23T09:12:27.367Z,24.02
2023-03-23T09:13:27.476Z,24.04
2023-03-23T09:14:27.460Z,24.06
2023-03-23T09:15:33.203Z,24.12
2023-03-23T09:16:28.558Z,24.17
2023-03-23T09:17:27.533Z,24.25
2023-03-23T09:19:27.500Z,24.36
2023-03-23T09:20:27.570Z,24.40
2023-03-23T09:21:27.491Z,24.39
2023-03-23T09:22:27.499Z,24.35
2023-03-23T09:23:27.516Z,24.33
2023-03-23T09:24:27.511Z,24.26
2023-03-23T09:25:27.489Z,24.20
2023-03-23T09:26:27.463Z,24.11
2023-03-23T09:27:27.476Z,24.06
2023-03-23T09:28:27.440Z,24.04
2023-03-23T09:29:27.484Z,24.00
2023-03-23T09:30:27.552Z,23.99
2023-03-23T09:31:27.761Z,24.01
2023-03-23T09:35:27.834Z,24.29
2023-03-23T09:36:27.859Z,24.37
2023-03-23T09:37:27.870Z,24.44
2023-03-23T09:38:27.871Z,24.51
2023-03-23T09:39:27.880Z,24.65
2023-03-23T09:40:27.886Z,24.83
2023-03-23T09:41:28.248Z,24.95
2023-03-23T09:42:27.894Z,25.01
2023-03-23T09:43:27.890Z,25.03
2023-03-23T09:46:27.901Z,25.01
2023-03-23T09:47:27.975Z,25.01
2023-03-23T09:48:27.982Z,25.03
2023-03-23T09:49:28.045Z,25.04
2023-03-23T09:50:28.092Z,25.05
2023-03-23T09:51:28.253Z,25.04
2023-03-23T09:52:28.397Z,25.05
2023-03-23T09:53:28.301Z,25.05
2023-03-23T09:54:28.335Z,25.07
2023-03-23T09:55:28.468Z,25.11
2023-03-23T09:56:28.452Z,25.17
2023-03-23T09:57:28.534Z,25.20
2023-03-23T09:58:28.607Z,25.17
2023-03-23T09:59:28.631Z,25.19
2023-03-23T10:00:28.757Z,25.21
2023-03-23T10:01:29.296Z,25.22
2023-03-23T10:02:28.798Z,25.20
2023-03-23T10:03:28.882Z,25.18
2023-03-23T10:04:28.909Z,25.18
2023-03-23T10:05:28.964Z,25.16
2023-03-23T10:06:29.050Z,25.17
2023-03-23T10:07:29.078Z,25.20
2023-03-23T10:08:29.172Z,25.21
2023-03-23T10:09:29.258Z,25.24
2023-03-23T10:10:29.304Z,25.24
2023-03-23T10:11:29.338Z,25.26
2023-03-23T10:12:29.346Z,25.24
2023-03-23T10:13:29.408Z,25.25
2023-03-23T10:14:29.487Z,25.27
2023-03-23T10:15:29.554Z,25.29
2023-03-23T10:16:29.673Z,25.32
2023-03-23T10:17:29.708Z,25.36
2023-03-23T10:18:29.641Z,25.41
2023-03-23T10:19:29.731Z,25.47
2023-03-23T10:20:29.758Z,25.51
2023-03-23T10:21:30.302Z,25.54
2023-03-23T10:23:29.878Z,25.57
2023-03-23T10:24:29.968Z,25.57
2023-03-23T10:26:29.996Z,25.59
2023-03-23T10:27:30.036Z,25.61
2023-03-23T10:28:30.048Z,25.62
2023-03-23T10:29:30.101Z,25.61
2023-03-23T10:31:30.166Z,25.51
2023-03-23T10:32:30.149Z,25.44
2023-03-23T10:33:30.234Z,25.41
2023-03-23T10:34:30.267Z,25.38
2023-03-23T10:35:31.872Z,25.36
2023-03-23T10:36:30.370Z,25.36
2023-03-23T10:37:30.778Z,25.33
2023-03-23T10:38:30.441Z,25.32
2023-03-23T10:39:30.496Z,25.32
2023-03-23T10:40:30.524Z,25.32
2023-03-23T10:41:30.576Z,25.29
2023-03-23T10:42:30.644Z,25.29
2023-03-23T10:43:30.656Z,25.30
2023-03-23T10:44:30.694Z,25.31
2023-03-23T10:45:30.753Z,25.31
2023-03-23T10:46:32.394Z,25.32
2023-03-23T10:48:30.794Z,25.39
2023-03-23T10:52:30.774Z,25.34
2023-03-23T10:54:30.743Z,25.30
2023-03-23T10:56:30.778Z,25.24
2023-03-23T11:00:30.678Z,25.19
2023-03-23T11:01:30.691Z,25.19
2023-03-23T11:04:30.667Z,25.13
2023-03-23T11:05:30.665Z,25.12
2023-03-23T11:06:30.740Z,25.11
2023-03-23T11:08:30.667Z,25.10
2023-03-23T11:13:30.581Z,25.12
2023-03-23T11:17:30.578Z,25.13
2023-03-23T11:20:30.525Z,25.15
2023-03-23T11:21:30.521Z,25.15
2023-03-23T11:22:30.777Z,25.15
2023-03-23T11:25:30.577Z,25.16
2023-03-23T11:26:30.540Z,25.16
2023-03-23T11:27:30.609Z,25.16
2023-03-23T11:28:30.647Z,25.16
2023-03-23T11:29:30.721Z,25.15
2023-03-23T11:30:30.767Z,25.12
2023-03-23T11:31:30.803Z,25.10
2023-03-23T11:32:31.311Z,25.11
2023-03-23T11:34:31.024Z,25.09
2023-03-23T11:35:31.110Z,25.05
2023-03-23T11:36:31.141Z,25.03
2023-03-23T11:37:31.299Z,25.00
2023-03-23T11:41:31.482Z,24.98
2023-03-23T11:42:31.514Z,24.96
2023-03-23T11:43:31.570Z,24.93
2023-03-23T11:44:31.618Z,24.87
2023-03-23T11:45:31.669Z,24.81
2023-03-23T11:46:31.722Z,24.70
2023-03-23T11:47:31.794Z,24.61
2023-03-23T11:48:31.680Z,24.50
2023-03-23T11:49:33.551Z,24.43
2023-03-23T11:50:31.709Z,24.37
2023-03-23T11:51:31.735Z,24.34
2023-03-23T11:52:31.795Z,24.31
2023-03-23T11:53:31.810Z,24.30
2023-03-23T11:54:31.870Z,24.29
2023-03-23T11:55:31.937Z,24.29
2023-03-23T11:56:31.940Z,24.28
2023-03-23T11:57:31.934Z,24.25
2023-03-23T11:58:31.992Z,24.23
2023-03-23T11:59:32.013Z,24.22
2023-03-23T12:00:32.043Z,24.22
2023-03-23T12:01:32.061Z,24.22
2023-03-23T12:02:32.141Z,24.22
2023-03-23T12:03:32.151Z,24.20
2023-03-23T12:04:32.178Z,24.21
2023-03-23T12:05:32.279Z,24.24
2023-03-23T12:08:32.367Z,24.23
2023-03-23T12:09:32.384Z,24.23
2023-03-23T12:10:40.807Z,24.24
2023-03-23T12:11:33.447Z,24.25
2023-03-23T12:14:36.601Z,24.25
2023-03-23T12:15:33.438Z,24.24
2023-03-23T12:20:37.731Z,24.37
2023-03-23T12:21:33.362Z,24.40
2023-03-23T12:22:32.374Z,24.44
2023-03-23T12:24:32.380Z,24.50
2023-03-23T12:26:32.319Z,24.55
2023-03-23T12:27:32.346Z,24.54
2023-03-23T12:28:32.831Z,24.55
2023-03-23T12:31:32.305Z,24.49
2023-03-23T12:34:32.298Z,24.56
2023-03-23T12:35:32.272Z,24.58
2023-03-23T12:36:32.275Z,24.60
2023-03-23T12:37:32.265Z,24.63
2023-03-23T12:39:32.236Z,24.66
2023-03-23T12:40:32.243Z,24.67
2023-03-23T12:44:32.193Z,24.63
2023-03-23T12:45:32.201Z,24.61
2023-03-23T12:46:32.217Z,24.57
2023-03-23T12:53:32.143Z,24.57
2023-03-23T12:59:32.095Z,24.54
2023-03-23T13:03:42.196Z,24.55
2023-03-23T13:05:42.353Z,24.57
2023-03-23T13:08:42.154Z,24.61
2023-03-23T13:09:42.161Z,24.62
2023-03-23T13:11:42.105Z,24.62
2023-03-23T13:12:42.126Z,24.62
2023-03-23T13:18:42.118Z,24.72
2023-03-23T13:22:42.041Z,24.77
2023-03-23T13:26:42.018Z,24.81
2023-03-23T13:28:42.006Z,24.81
2023-03-23T13:29:41.988Z,24.81
2023-03-23T13:30:42.001Z,24.83
2023-03-23T13:33:42.014Z,24.83
2023-03-23T13:39:41.957Z,24.85
2023-03-23T13:40:42.206Z,24.86
2023-03-23T13:43:41.911Z,24.89
2023-03-23T13:44:41.897Z,24.89
2023-03-23T13:45:42.128Z,24.90
2023-03-23T13:48:41.980Z,24.91
2023-03-23T13:49:42.028Z,24.91
2023-03-23T13:50:42.243Z,24.90
2023-03-23T13:51:42.122Z,24.88
2023-03-23T13:52:42.139Z,24.87
2023-03-23T13:53:42.208Z,24.86
2023-03-23T13:54:42.220Z,24.86
2023-03-23T13:55:42.401Z,24.84
2023-03-23T13:56:42.257Z,24.84
2023-03-23T13:57:42.282Z,24.82
2023-03-23T13:58:42.282Z,24.82
2023-03-23T13:59:42.313Z,24.81
2023-03-23T14:00:42.344Z,24.81
2023-03-23T14:01:42.360Z,24.80
2023-03-23T14:02:42.430Z,24.80
2023-03-23T14:03:42.459Z,24.80
2023-03-23T14:04:42.464Z,24.80
2023-03-23T14:05:42.614Z,24.79
2023-03-23T14:06:42.560Z,24.79
2023-03-23T14:07:42.597Z,24.79
2023-03-23T14:08:42.670Z,24.79
2023-03-23T14:09:42.709Z,24.78
2023-03-23T14:10:42.747Z,24.78
2023-03-23T14:11:42.777Z,24.78
2023-03-23T14:12:42.839Z,24.76
2023-03-23T14:13:42.883Z,24.77
2023-03-23T14:14:42.947Z,24.77
2023-03-23T14:15:43.143Z,24.76
2023-03-23T14:16:42.999Z,24.76
2023-03-23T14:17:43.050Z,24.76
2023-03-23T14:18:43.094Z,24.76
2023-03-23T14:19:43.126Z,24.75
2023-03-23T14:20:43.128Z,24.76
2023-03-23T14:21:43.164Z,24.76
2023-03-23T14:22:43.202Z,24.75
2023-03-23T14:23:43.245Z,24.76
2023-03-23T14:24:43.305Z,24.76
2023-03-23T14:25:43.413Z,24.76
2023-03-23T14:26:43.362Z,24.77
2023-03-23T14:27:43.407Z,24.76
2023-03-23T14:28:43.444Z,24.76
2023-03-23T14:29:43.504Z,24.77
2023-03-23T14:30:43.536Z,24.77
2023-03-23T14:31:43.571Z,24.76
2023-03-23T14:32:43.635Z,24.77
2023-03-23T14:33:43.672Z,24.77
2023-03-23T14:34:43.749Z,24.76
2023-03-23T14:35:44.129Z,24.76
2023-03-23T14:36:43.865Z,24.77
2023-03-23T14:37:43.907Z,24.76
2023-03-23T14:38:43.996Z,24.77
2023-03-23T14:39:44.028Z,24.77
2023-03-23T14:40:45.389Z,24.77
2023-03-23T14:41:44.147Z,24.77
2023-03-23T14:42:44.273Z,24.76
2023-03-23T14:43:44.608Z,24.76
2023-03-23T14:45:44.673Z,24.75
2023-03-23T14:46:44.464Z,24.75
2023-03-23T14:47:44.519Z,24.76
2023-03-23T14:48:44.563Z,24.76
2023-03-23T14:49:44.643Z,24.75
2023-03-23T14:50:44.679Z,24.75
2023-03-23T14:51:44.769Z,24.75
2023-03-23T14:52:44.797Z,24.75
2023-03-23T14:53:44.866Z,24.75
2023-03-23T14:54:44.922Z,24.75
2023-03-23T14:55:45.018Z,24.75
2023-03-23T14:56:45.050Z,24.75
2023-03-23T14:57:45.076Z,24.75
2023-03-23T14:58:45.141Z,24.76
2023-03-23T14:59:45.214Z,24.76
2023-03-23T15:00:45.283Z,24.75
2023-03-23T15:01:45.330Z,24.76
2023-03-23T15:02:45.407Z,24.75
2023-03-23T15:03:45.470Z,24.75
2023-03-23T15:04:45.537Z,24.76
2023-03-23T15:05:45.571Z,24.76
2023-03-23T15:06:45.609Z,24.75
2023-03-23T15:07:45.703Z,24.75
2023-03-23T15:08:45.736Z,24.75
2023-03-23T15:09:45.801Z,24.75
2023-03-23T15:10:45.844Z,24.75
2023-03-23T15:11:45.919Z,24.74
2023-03-23T15:12:45.957Z,24.74
2023-03-23T15:13:46.048Z,24.73
2023-03-23T15:15:46.157Z,24.72
2023-03-23T15:16:46.185Z,24.72
2023-03-23T15:17:46.237Z,24.70
2023-03-23T15:18:46.383Z,24.70
2023-03-23T15:19:46.394Z,24.69
2023-03-23T15:20:46.421Z,24.69
2023-03-23T15:21:46.507Z,24.69
2023-03-23T15:22:46.586Z,24.69
2023-03-23T15:23:46.624Z,24.69
2023-03-23T15:24:46.707Z,24.69
2023-03-23T15:25:46.728Z,24.69
2023-03-23T15:26:46.827Z,24.69
2023-03-23T15:27:46.893Z,24.70
2023-03-23T15:28:46.923Z,24.71
2023-03-23T15:29:47.972Z,24.72
2023-03-23T15:32:46.929Z,24.73
2023-03-23T15:33:47.905Z,24.72
2023-03-23T15:35:46.875Z,24.72
2023-03-23T15:38:46.883Z,24.73
2023-03-23T15:41:46.848Z,24.73
2023-03-23T15:42:46.886Z,24.74
2023-03-23T15:43:46.964Z,24.73
2023-03-23T15:44:47.077Z,24.72
2023-03-23T15:45:47.077Z,24.72
2023-03-23T15:46:47.137Z,24.73
2023-03-23T15:47:47.200Z,24.72
2023-03-23T15:48:47.257Z,24.73
2023-03-23T15:49:47.356Z,24.72
2023-03-23T15:50:47.356Z,24.71
2023-03-23T15:51:47.420Z,24.70
2023-03-23T15:52:47.503Z,24.70
2023-03-23T15:53:47.590Z,24.69
2023-03-23T15:54:47.612Z,24.69
2023-03-23T15:55:47.667Z,24.69
2023-03-23T15:56:47.757Z,24.68
2023-03-23T15:58:57.895Z,24.65
2023-03-23T15:59:57.872Z,24.66
2023-03-23T16:00:57.907Z,24.66
2023-03-23T16:06:57.813Z,24.65
2023-03-23T16:07:57.812Z,24.65
2023-03-23T16:09:57.816Z,24.65
2023-03-23T16:11:57.782Z,24.65
2023-03-23T16:16:57.779Z,24.63
2023-03-23T16:17:57.781Z,24.63
2023-03-23T16:18:57.752Z,24.63
2023-03-23T16:19:57.746Z,24.62
2023-03-23T16:22:57.723Z,24.61
2023-03-23T16:23:57.719Z,24.61
2023-03-23T16:27:57.687Z,24.60
2023-03-23T16:29:09.878Z,24.59
2023-03-23T16:30:03.680Z,24.59
2023-03-23T16:30:58.707Z,24.58
2023-03-23T16:32:57.988Z,24.57
2023-03-23T16:33:57.633Z,24.57
2023-03-23T16:34:57.672Z,24.55
2023-03-23T16:35:57.796Z,24.55
2023-03-23T16:39:57.676Z,24.55
2023-03-23T16:42:57.574Z,24.54
2023-03-23T16:43:57.582Z,24.53
2023-03-23T16:44:57.592Z,24.53
2023-03-23T16:51:57.530Z,24.50
2023-03-23T16:54:57.532Z,24.50
2023-03-23T16:58:57.493Z,24.49
2023-03-23T16:59:57.494Z,24.49
2023-03-23T17:00:57.462Z,24.49
2023-03-23T17:04:57.470Z,24.48
2023-03-23T17:09:57.411Z,24.44
2023-03-23T17:10:57.396Z,24.43
2023-03-23T17:19:57.402Z,24.41
2023-03-23T17:29:57.318Z,24.40
2023-03-23T17:30:57.324Z,24.40
2023-03-23T17:41:57.203Z,24.41
2023-03-23T17:47:57.188Z,24.42
2023-03-23T17:48:57.174Z,24.42
2023-03-23T17:49:57.208Z,24.42
2023-03-23T17:55:57.126Z,24.41
2023-03-23T18:01:57.141Z,24.41
2023-03-23T18:02:57.140Z,24.41
2023-03-23T18:03:57.142Z,24.41
2023-03-23T18:04:57.156Z,24.41
2023-03-23T18:10:57.167Z,24.41
2023-03-23T18:11:57.178Z,24.41
2023-03-23T18:22:57.306Z,24.42
2023-03-23T18:23:59.857Z,24.41
2023-03-23T18:24:57.319Z,24.41
2023-03-23T18:25:57.308Z,24.40
2023-03-23T18:27:57.272Z,24.41
2023-03-23T18:28:58.268Z,24.40
2023-03-23T18:30:57.266Z,24.41
2023-03-23T18:34:57.239Z,24.41
2023-03-23T18:40:57.217Z,24.40
2023-03-23T18:41:57.186Z,24.40
2023-03-23T18:43:57.787Z,24.40
2023-03-23T18:51:57.126Z,24.39
2023-03-23T19:03:57.069Z,24.40
2023-03-23T19:04:57.090Z,24.41
2023-03-23T19:05:57.043Z,24.40
2023-03-23T19:06:57.046Z,24.40
2023-03-23T19:07:57.106Z,24.39
2023-03-23T19:14:57.146Z,24.33
2023-03-23T19:15:57.163Z,24.30
2023-03-23T19:17:57.096Z,24.26
2023-03-23T19:18:57.108Z,24.23
2023-03-23T19:19:58.058Z,24.23
2023-03-23T19:24:57.147Z,24.22
2023-03-23T19:25:57.163Z,24.23
2023-03-23T19:26:57.135Z,24.24
2023-03-23T19:28:49.965Z,24.25
2023-03-23T19:30:57.210Z,24.28
2023-03-23T19:31:57.150Z,24.28
2023-03-23T19:33:57.136Z,24.30
2023-03-23T19:34:57.149Z,24.31
2023-03-23T19:37:04.779Z,24.32
2023-03-23T19:37:58.099Z,24.32
2023-03-23T19:38:57.089Z,24.33
2023-03-23T19:40:57.218Z,24.33
2023-03-23T19:45:57.034Z,24.29
2023-03-23T19:46:57.640Z,24.29
2023-03-23T19:47:57.121Z,24.29
2023-03-23T19:48:57.034Z,24.29
2023-03-23T19:49:57.043Z,24.29
2023-03-23T19:52:08.077Z,24.30
2023-03-23T19:53:00.178Z,24.30
2023-03-23T19:54:56.989Z,24.29
2023-03-23T19:55:57.383Z,24.28
2023-03-23T19:56:57.014Z,24.26
2023-03-23T20:00:57.070Z,24.26
2023-03-23T20:05:56.957Z,24.29
2023-03-23T20:06:57.179Z,24.30
2023-03-23T20:10:56.876Z,24.31
2023-03-23T20:11:56.891Z,24.31
2023-03-23T20:17:57.986Z,24.33
2023-03-23T20:23:56.818Z,24.34
2023-03-23T20:25:57.787Z,24.34
2023-03-23T20:31:56.725Z,24.35
2023-03-23T20:32:56.771Z,24.34
2023-03-23T20:33:59.832Z,24.34
2023-03-23T20:34:56.754Z,24.33
2023-03-23T20:35:56.824Z,24.33
2023-03-23T20:36:56.744Z,24.33
2023-03-23T20:38:56.690Z,24.33
2023-03-23T20:39:56.700Z,24.33
2023-03-23T20:40:56.711Z,24.33
2023-03-23T20:42:56.704Z,24.33
2023-03-23T20:49:56.651Z,24.34
2023-03-23T20:51:56.690Z,24.34
2023-03-23T20:53:56.607Z,24.34
2023-03-23T20:54:56.625Z,24.34
2023-03-23T21:01:56.614Z,24.34
2023-03-23T21:04:56.545Z,24.34
2023-03-23T21:05:56.563Z,24.34
2023-03-23T21:09:56.532Z,24.33
2023-03-23T21:10:56.518Z,24.33
2023-03-23T21:18:56.515Z,24.29
2023-03-23T21:19:56.509Z,24.28
2023-03-23T21:20:56.537Z,24.27
2023-03-23T21:21:57.292Z,24.26
2023-03-23T21:22:56.563Z,24.25
2023-03-23T21:23:56.596Z,24.23
2023-03-23T21:24:56.630Z,24.24
2023-03-23T21:25:56.640Z,24.25
2023-03-23T21:27:56.677Z,24.25
2023-03-23T21:35:56.890Z,24.27
2023-03-23T21:36:56.863Z,24.27
2023-03-23T21:37:56.890Z,24.28
2023-03-23T21:38:56.908Z,24.28
2023-03-23T21:39:57.104Z,24.29
2023-03-23T21:43:56.998Z,24.29
2023-03-23T21:44:57.003Z,24.30
2023-03-23T21:45:56.999Z,24.29
2023-03-23T21:46:57.042Z,24.30
2023-03-23T21:47:57.192Z,24.30
2023-03-23T21:51:57.105Z,24.30
2023-03-23T21:52:57.121Z,24.30
2023-03-23T21:53:57.136Z,24.31
2023-03-23T21:54:57.134Z,24.30
2023-03-23T21:55:57.176Z,24.30
2023-03-23T22:02:57.371Z,24.27
2023-03-23T22:03:57.312Z,24.26
2023-03-23T22:04:57.369Z,24.26
2023-03-23T22:05:57.394Z,24.27
2023-03-23T22:06:57.399Z,24.27
2023-03-23T22:07:57.414Z,24.27
2023-03-23T22:08:57.455Z,24.27
2023-03-23T22:09:57.487Z,24.27
2023-03-23T22:11:00.704Z,24.27
2023-03-23T22:11:57.523Z,24.27
2023-03-23T22:15:57.490Z,24.27
2023-03-23T22:16:57.474Z,24.27
2023-03-23T22:21:57.427Z,24.27
2023-03-23T22:29:57.357Z,24.28
2023-03-23T22:30:57.356Z,24.28
2023-03-23T22:32:57.380Z,24.28
2023-03-23T22:33:57.359Z,24.28
2023-03-23T22:41:57.268Z,24.28
2023-03-23T22:42:57.278Z,24.28
2023-03-23T22:43:57.284Z,24.28
2023-03-23T22:45:57.286Z,24.27
2023-03-23T22:51:57.237Z,24.28
2023-03-23T22:52:57.245Z,24.28
2023-03-23T23:01:57.160Z,24.26
2023-03-23T23:08:57.220Z,24.27
2023-03-23T23:09:57.282Z,24.26
2023-03-23T23:10:57.293Z,24.27
2023-03-23T23:15:57.356Z,24.27
2023-03-23T23:32:57.640Z,24.27
2023-03-23T23:33:57.645Z,24.27
2023-03-23T23:34:57.620Z,24.27
2023-03-23T23:35:57.691Z,24.27
2023-03-23T23:36:57.678Z,24.27
2023-03-23T23:37:57.695Z,24.27
2023-03-23T23:41:57.761Z,24.27
